Time;durP1;ratioP1;P1;durP2;ratioP2;P2;SDS_P1;SDS_P2;PMS_P1;PMS_P2;Temp;Humidity;BMP_temperature;BMP_pressure;BME280_temperature;BME280_humidity;BME280_pressure;Samples;Min_cycle;Max_cycle;Signal;HPM_P1;HPM_P2
2021/08/22 00:02:05;;;;;;;17.35;9.80;;;19.20;86.50;;;;;;5094303;28;20035;-47
2021/08/22 00:04:32;;;;;;;11.80;8.18;;;19.10;87.50;;;;;;5093976;28;20027;-46
2021/08/22 00:06:57;;;;;;;13.43;8.73;;;18.80;88.50;;;;;;5093909;28;20028;-46
2021/08/22 00:09:23;;;;;;;11.43;8.30;;;18.80;88.40;;;;;;5093800;28;20024;-48
2021/08/22 00:11:50;;;;;;;13.10;9.13;;;18.80;88.50;;;;;;5094163;28;20054;-51
2021/08/22 00:14:15;;;;;;;12.35;8.15;;;18.70;88.50;;;;;;5094337;28;20024;-47
2021/08/22 00:16:41;;;;;;;14.15;9.32;;;18.80;88.70;;;;;;5093855;28;20069;-48
2021/08/22 00:19:07;;;;;;;10.35;8.82;;;18.80;88.70;;;;;;5093480;28;20030;-49
2021/08/22 00:21:33;;;;;;;13.18;9.10;;;18.80;88.80;;;;;;5093435;28;20023;-50
2021/08/22 00:23:58;;;;;;;10.95;7.90;;;18.80;88.60;;;;;;5093701;28;20382;-49
2021/08/22 00:26:24;;;;;;;11.98;9.00;;;18.90;88.00;;;;;;5094649;28;20077;-47
2021/08/22 00:28:50;;;;;;;10.13;8.57;;;18.90;87.80;;;;;;5093877;28;20027;-50
2021/08/22 00:31:15;;;;;;;11.60;8.27;;;18.80;88.70;;;;;;5092315;28;20024;-49
2021/08/22 00:33:41;;;;;;;13.07;9.55;;;18.90;88.40;;;;;;5093484;28;20040;-46
2021/08/22 00:36:07;;;;;;;13.00;8.40;;;18.90;89.10;;;;;;5093601;28;20044;-45
2021/08/22 00:38:33;;;;;;;10.48;8.02;;;18.80;89.20;;;;;;5093626;28;20130;-48
2021/08/22 00:41:00;;;;;;;12.80;9.32;;;18.60;90.00;;;;;;5094214;28;20024;-51
2021/08/22 00:43:27;;;;;;;14.90;9.27;;;18.70;90.10;;;;;;5093910;28;20597;-49
2021/08/22 00:45:53;;;;;;;13.73;10.45;;;18.70;90.00;;;;;;5092068;28;20031;-47
2021/08/22 00:48:18;;;;;;;13.82;9.85;;;18.60;90.10;;;;;;5093580;28;20028;-47
2021/08/22 00:50:46;;;;;;;12.80;10.30;;;18.60;90.10;;;;;;5093537;28;20031;-47
2021/08/22 00:53:13;;;;;;;15.45;10.82;;;18.70;90.10;;;;;;5093091;28;20032;-50
2021/08/22 00:55:39;;;;;;;15.80;11.35;;;18.70;89.90;;;;;;5093415;28;20475;-46
2021/08/22 00:58:04;;;;;;;14.02;11.15;;;18.70;90.00;;;;;;5093201;28;20038;-48
2021/08/22 01:00:31;;;;;;;13.88;11.02;;;18.60;90.60;;;;;;5093537;28;20024;-47
2021/08/22 01:03:08;;;;;;;16.38;10.95;;;18.50;91.30;;;;;;5093032;28;20028;-47
2021/08/22 01:05:36;;;;;;;14.40;11.50;;;18.50;91.10;;;;;;5093193;28;20028;-48
2021/08/22 01:08:27;;;;;;;13.85;10.73;;;18.40;91.40;;;;;;5092624;28;20024;-48
2021/08/22 01:10:57;;;;;;;15.18;12.00;;;18.30;91.40;;;;;;5092896;28;20382;-47
2021/08/22 01:13:27;;;;;;;13.43;11.05;;;18.30;91.30;;;;;;5092582;28;20051;-47
2021/08/22 01:15:58;;;;;;;14.20;9.70;;;18.20;91.40;;;;;;5093076;28;20046;-47
2021/08/22 01:18:26;;;;;;;12.27;8.80;;;18.30;91.20;;;;;;5092790;28;20480;-47
2021/08/22 01:21:06;;;;;;;11.50;8.82;;;18.20;90.80;;;;;;5092645;28;20103;-47
2021/08/22 01:23:40;;;;;;;10.20;7.40;;;18.10;90.60;;;;;;5093073;28;20170;-48
2021/08/22 01:26:06;;;;;;;12.05;7.10;;;18.10;90.30;;;;;;5093274;28;20363;-48
2021/08/22 01:28:32;;;;;;;9.68;7.15;;;18.00;90.10;;;;;;5091435;28;20036;-49
2021/08/22 01:31:03;;;;;;;8.15;5.60;;;17.90;90.50;;;;;;5092645;28;20403;-47
2021/08/22 01:33:31;;;;;;;9.73;7.63;;;17.90;90.30;;;;;;5092628;28;20028;-52
2021/08/22 01:35:59;;;;;;;13.20;6.70;;;17.80;90.30;;;;;;5092767;28;20016;-48
2021/08/22 01:38:25;;;;;;;12.00;7.88;;;17.90;90.40;;;;;;5091618;28;20149;-48
2021/08/22 01:40:51;;;;;;;12.20;7.43;;;17.80;90.60;;;;;;5093063;28;20029;-49
2021/08/22 01:43:17;;;;;;;10.30;7.88;;;17.80;91.00;;;;;;5093564;28;20388;-47
2021/08/22 01:45:43;;;;;;;12.95;7.80;;;17.80;91.10;;;;;;5092845;28;20099;-47
2021/08/22 01:48:12;;;;;;;10.32;7.13;;;17.80;91.10;;;;;;5093194;28;20032;-48
2021/08/22 01:50:39;;;;;;;9.52;7.30;;;17.70;91.40;;;;;;5092959;28;20035;-47
2021/08/22 01:53:05;;;;;;;11.82;7.53;;;17.70;91.50;;;;;;5092947;28;20024;-47
2021/08/22 01:55:32;;;;;;;13.10;9.32;;;17.60;91.60;;;;;;5092935;28;20024;-47
2021/08/22 01:57:58;;;;;;;14.77;8.07;;;17.70;91.70;;;;;;5092736;28;20028;-47
2021/08/22 02:00:23;;;;;;;10.73;6.63;;;17.60;91.70;;;;;;5092864;28;20078;-47
2021/08/22 02:03:10;;;;;;;13.65;7.88;;;17.60;91.50;;;;;;5092701;28;20495;-48
2021/08/22 02:05:39;;;;;;;9.85;6.65;;;17.60;91.80;;;;;;5092856;28;20506;-48
2021/08/22 02:08:15;;;;;;;11.15;7.50;;;17.50;91.70;;;;;;5091614;28;20337;-48
2021/08/22 02:10:59;;;;;;;9.90;6.82;;;17.50;91.90;;;;;;5092742;28;20024;-48
2021/08/22 02:13:32;;;;;;;16.05;7.35;;;17.50;91.70;;;;;;5092431;28;20044;-47
2021/08/22 02:16:01;;;;;;;11.35;6.97;;;17.60;91.50;;;;;;5092620;28;20030;-47
2021/08/22 02:18:28;;;;;;;10.40;7.45;;;17.50;91.60;;;;;;5092826;28;20483;-46
2021/08/22 02:20:54;;;;;;;12.68;6.72;;;17.40;91.90;;;;;;5095117;28;20525;-49
2021/08/22 02:23:21;;;;;;;11.85;7.95;;;17.40;92.10;;;;;;5096708;28;20024;-47
2021/08/22 02:25:47;;;;;;;15.73;8.55;;;17.40;92.30;;;;;;5096320;28;20024;-48
2021/08/22 02:28:14;;;;;;;11.50;8.13;;;17.50;92.00;;;;;;5095157;28;20051;-49
2021/08/22 02:30:39;;;;;;;11.43;7.35;;;17.50;91.90;;;;;;5096725;28;20099;-48
2021/08/22 02:33:06;;;;;;;10.88;6.90;;;17.50;91.80;;;;;;5096136;28;20098;-51
2021/08/22 02:35:33;;;;;;;11.23;8.07;;;17.50;91.60;;;;;;5096436;28;20463;-50
2021/08/22 02:37:59;;;;;;;8.63;6.90;;;17.50;91.50;;;;;;5096437;28;20027;-47
2021/08/22 02:40:25;;;;;;;11.50;7.22;;;17.50;91.60;;;;;;5096340;28;20029;-47
2021/08/22 02:42:51;;;;;;;11.82;8.55;;;17.60;91.30;;;;;;5096744;28;20039;-46
2021/08/22 02:45:17;;;;;;;13.02;8.00;;;17.60;91.10;;;;;;5096300;28;20032;-49
2021/08/22 02:47:42;;;;;;;9.18;8.07;;;17.60;90.90;;;;;;5096322;28;20031;-49
2021/08/22 02:50:09;;;;;;;10.85;8.55;;;17.70;90.80;;;;;;5094722;28;20024;-51
2021/08/22 02:52:34;;;;;;;9.68;8.35;;;17.70;90.60;;;;;;5095940;28;20519;-44
2021/08/22 02:55:00;;;;;;;12.45;8.38;;;17.70;90.70;;;;;;5095139;28;20044;-47
2021/08/22 02:57:25;;;;;;;14.80;7.65;;;17.60;90.60;;;;;;5096291;28;20035;-48
2021/08/22 02:59:51;;;;;;;10.77;8.23;;;17.40;91.30;;;;;;5095949;28;20017;-46
2021/08/22 03:02:17;;;;;;;11.52;8.40;;;17.30;91.90;;;;;;5095968;28;20032;-46
2021/08/22 03:04:42;;;;;;;15.65;8.48;;;17.30;92.30;;;;;;5095750;28;20024;-48
2021/08/22 03:07:08;;;;;;;16.95;7.93;;;17.30;91.80;;;;;;5095533;28;20028;-49
2021/08/22 03:09:33;;;;;;;11.25;7.82;;;17.30;91.80;;;;;;5095699;28;20471;-46
2021/08/22 03:11:59;;;;;;;12.60;7.90;;;17.40;91.60;;;;;;5095432;28;20078;-47
2021/08/22 03:14:25;;;;;;;12.20;6.57;;;17.40;91.60;;;;;;5095683;28;20020;-46
2021/08/22 03:16:51;;;;;;;11.90;6.57;;;17.50;91.50;;;;;;5095642;28;20055;-47
2021/08/22 03:19:16;;;;;;;9.40;6.60;;;17.50;91.20;;;;;;5093778;28;20039;-45
2021/08/22 03:21:44;;;;;;;15.38;7.45;;;17.50;90.70;;;;;;5095030;28;20043;-45
2021/08/22 03:24:14;;;;;;;7.82;5.75;;;17.50;90.70;;;;;;5095717;28;20098;-44
2021/08/22 03:26:40;;;;;;;10.88;6.85;;;17.40;90.80;;;;;;5094931;28;20031;-47
2021/08/22 03:29:06;;;;;;;8.98;6.82;;;17.40;91.30;;;;;;5095198;28;20024;-44
2021/08/22 03:31:31;;;;;;;9.43;7.18;;;17.50;91.00;;;;;;5093627;28;20024;-45
2021/08/22 03:33:57;;;;;;;10.07;6.78;;;17.60;90.70;;;;;;5094610;28;20403;-45
2021/08/22 03:36:23;;;;;;;9.63;7.40;;;17.60;90.70;;;;;;5095218;28;20056;-48
2021/08/22 03:38:49;;;;;;;12.07;7.80;;;17.50;91.10;;;;;;5094944;28;20052;-46
2021/08/22 03:41:16;;;;;;;11.85;8.55;;;17.50;90.80;;;;;;5094590;28;20510;-45
2021/08/22 03:43:41;;;;;;;12.48;8.25;;;17.40;91.30;;;;;;5094772;28;20093;-46
2021/08/22 03:46:07;;;;;;;10.77;8.43;;;17.50;91.30;;;;;;5094760;28;20467;-49
2021/08/22 03:48:33;;;;;;;15.13;9.73;;;17.50;91.80;;;;;;5094479;28;20024;-45
2021/08/22 03:50:58;;;;;;;14.80;10.20;;;17.50;91.40;;;;;;5094548;28;20035;-46
2021/08/22 03:53:25;;;;;;;17.67;11.98;;;17.50;91.80;;;;;;5093001;28;20097;-49
2021/08/22 03:55:50;;;;;;;15.07;11.15;;;17.50;91.50;;;;;;5094461;28;20053;-48
2021/08/22 03:58:16;;;;;;;16.73;11.95;;;17.50;91.50;;;;;;5094171;28;20099;-46
2021/08/22 04:00:41;;;;;;;17.23;12.85;;;17.50;91.70;;;;;;5094082;28;20044;-45
2021/08/22 04:03:07;;;;;;;16.20;12.88;;;17.60;91.90;;;;;;5094050;28;20545;-48
2021/08/22 04:05:33;;;;;;;17.73;14.50;;;17.70;91.60;;;;;;5094293;28;20020;-45
2021/08/22 04:08:00;;;;;;;22.20;15.32;;;17.60;91.70;;;;;;5093964;28;20036;-45
2021/08/22 04:10:27;;;;;;;20.02;14.60;;;17.60;91.60;;;;;;5092569;28;20505;-46
2021/08/22 04:12:54;;;;;;;16.13;13.07;;;17.50;91.60;;;;;;5093573;28;20040;-47
2021/08/22 04:15:20;;;;;;;21.05;15.80;;;17.70;91.90;;;;;;5094137;28;20086;-47
2021/08/22 04:17:45;;;;;;;19.35;14.52;;;17.70;91.60;;;;;;5092487;28;20467;-46
2021/08/22 04:20:11;;;;;;;28.13;19.38;;;17.70;91.50;;;;;;5093869;28;20032;-46
2021/08/22 04:22:39;;;;;;;35.00;24.08;;;17.80;91.20;;;;;;5094029;28;20024;-45
2021/08/22 04:25:09;;;;;;;48.80;30.02;;;17.70;91.60;;;;;;5093620;28;20105;-47
2021/08/22 04:27:35;;;;;;;;;;;17.60;91.80;;;;;;5093919;28;20024;-45
2021/08/22 04:30:01;;;;;;;52.97;34.28;;;17.60;91.90;;;;;;5093318;28;20325;-47
2021/08/22 04:32:26;;;;;;;64.82;38.60;;;17.50;92.50;;;;;;5093338;28;20027;-48
2021/08/22 04:34:52;;;;;;;68.60;42.90;;;17.60;92.30;;;;;;5093475;28;20129;-45
2021/08/22 04:37:18;;;;;;;73.13;43.65;;;17.60;92.20;;;;;;5093437;28;20055;-45
2021/08/22 04:39:44;;;;;;;76.15;45.58;;;17.60;92.30;;;;;;5093325;28;20028;-46
2021/08/22 04:42:10;;;;;;;76.50;44.20;;;17.50;92.60;;;;;;5093058;28;20016;-46
2021/08/22 04:44:35;;;;;;;75.95;46.15;;;17.50;92.50;;;;;;5093280;28;20046;-46
2021/08/22 04:47:01;;;;;;;86.35;46.38;;;17.50;92.50;;;;;;5093282;28;20021;-45
2021/08/22 04:49:27;;;;;;;79.80;47.78;;;17.50;92.60;;;;;;5093552;28;20062;-45
2021/08/22 04:51:53;;;;;;;75.13;44.92;;;17.50;92.60;;;;;;5093356;28;20042;-46
2021/08/22 04:54:21;;;;;;;76.25;45.13;;;17.50;92.50;;;;;;5093435;28;20035;-45
2021/08/22 04:56:47;;;;;;;72.65;42.20;;;17.50;92.40;;;;;;5093375;28;20542;-46
2021/08/22 04:59:13;;;;;;;72.43;44.78;;;17.40;92.60;;;;;;5093092;28;20020;-45
2021/08/22 05:01:38;;;;;;;71.15;44.22;;;17.30;92.70;;;;;;5093107;28;20024;-47
2021/08/22 05:04:04;;;;;;;74.13;42.55;;;17.40;92.50;;;;;;5093475;28;20028;-47
2021/08/22 05:06:30;;;;;;;74.82;45.83;;;17.40;92.50;;;;;;5093067;28;20413;-47
2021/08/22 05:08:55;;;;;;;66.85;42.90;;;17.50;92.20;;;;;;5093214;28;20028;-46
2021/08/22 05:11:21;;;;;;;82.75;46.92;;;17.40;92.40;;;;;;5093524;28;20024;-46
2021/08/22 05:13:47;;;;;;;74.25;46.25;;;17.50;92.50;;;;;;5092727;28;20093;-45
2021/08/22 05:16:12;;;;;;;71.35;42.63;;;17.50;92.20;;;;;;5091521;28;20017;-46
2021/08/22 05:18:38;;;;;;;68.40;40.80;;;17.50;92.00;;;;;;5092939;28;20029;-46
2021/08/22 05:21:03;;;;;;;71.32;42.17;;;17.50;91.90;;;;;;5093134;28;20027;-46
2021/08/22 05:23:30;;;;;;;74.07;44.03;;;17.60;91.70;;;;;;5092849;28;20036;-45
2021/08/22 05:25:56;;;;;;;69.63;41.95;;;17.70;91.60;;;;;;5093376;28;20036;-46
2021/08/22 05:28:21;;;;;;;62.03;40.03;;;17.60;91.70;;;;;;5092827;28;20050;-48
2021/08/22 05:30:47;;;;;;;65.93;42.42;;;17.60;91.70;;;;;;5093037;28;20028;-45
2021/08/22 05:33:13;;;;;;;62.65;39.83;;;17.60;91.80;;;;;;5092963;28;20028;-47
2021/08/22 05:35:38;;;;;;;67.47;42.78;;;17.60;91.90;;;;;;5092732;28;20089;-45
2021/08/22 05:38:07;;;;;;;66.03;42.90;;;17.70;91.70;;;;;;5092973;28;20129;-47
2021/08/22 05:40:34;;;;;;;59.05;40.15;;;17.70;91.40;;;;;;5093146;28;20107;-46
2021/08/22 05:42:59;;;;;;;57.65;38.80;;;17.70;91.20;;;;;;5092959;28;20028;-45
2021/08/22 05:45:25;;;;;;;55.22;37.10;;;17.70;91.00;;;;;;5092641;28;20498;-46
2021/08/22 05:47:51;;;;;;;60.40;38.38;;;17.70;91.10;;;;;;5092578;28;20020;-45
2021/08/22 05:50:16;;;;;;;56.78;36.55;;;17.70;91.20;;;;;;5093516;28;20505;-46
2021/08/22 05:52:42;;;;;;;54.35;37.80;;;17.80;90.90;;;;;;5092528;28;20073;-45
2021/08/22 05:55:09;;;;;;;49.95;35.88;;;17.80;90.90;;;;;;5094288;28;20043;-46
2021/08/22 05:57:35;;;;;;;54.03;36.38;;;17.80;90.60;;;;;;5096453;28;20032;-46
2021/08/22 06:00:02;;;;;;;49.45;36.78;;;17.80;90.90;;;;;;5096685;28;20463;-47
2021/08/22 06:02:27;;;;;;;53.28;34.47;;;18.00;90.50;;;;;;5096661;28;20054;-45
2021/08/22 06:04:53;;;;;;;48.50;34.70;;;18.20;90.10;;;;;;5096294;28;20051;-46
2021/08/22 06:07:20;;;;;;;45.95;35.13;;;18.20;89.70;;;;;;5096487;28;20035;-45
2021/08/22 06:09:47;;;;;;;50.13;34.05;;;18.30;89.40;;;;;;5096116;28;20039;-46
2021/08/22 06:12:13;;;;;;;46.33;34.45;;;18.30;89.60;;;;;;5095904;28;20074;-47
2021/08/22 06:14:39;;;;;;;51.25;34.25;;;18.30;89.50;;;;;;5096320;28;20027;-50
2021/08/22 06:17:04;;;;;;;44.85;33.85;;;18.30;89.70;;;;;;5096104;28;20495;-48
2021/08/22 06:19:30;;;;;;;47.60;35.15;;;18.20;89.90;;;;;;5095962;28;20024;-46
2021/08/22 06:21:55;;;;;;;50.90;35.13;;;18.20;90.00;;;;;;5095973;28;20040;-49
2021/08/22 06:24:21;;;;;;;46.65;32.63;;;18.10;90.10;;;;;;5096270;28;20096;-49
2021/08/22 06:26:47;;;;;;;45.28;32.00;;;18.10;90.10;;;;;;5094593;28;20047;-46
2021/08/22 06:29:12;;;;;;;45.30;31.77;;;18.10;89.70;;;;;;5095710;28;20024;-50
2021/08/22 06:31:38;;;;;;;45.72;32.83;;;18.00;89.90;;;;;;5095681;28;20028;-47
2021/08/22 06:34:06;;;;;;;46.38;31.63;;;18.00;90.30;;;;;;5096165;28;20074;-45
2021/08/22 06:36:32;;;;;;;57.30;35.28;;;18.20;89.80;;;;;;5094282;28;20052;-46
2021/08/22 06:38:58;;;;;;;54.13;34.15;;;18.30;89.40;;;;;;5095592;28;20077;-46
2021/08/22 06:41:23;;;;;;;45.05;31.52;;;18.20;89.00;;;;;;5095596;28;20073;-47
2021/08/22 06:43:49;;;;;;;44.30;32.03;;;18.20;89.40;;;;;;5095444;28;20028;-48
2021/08/22 06:46:14;;;;;;;47.05;32.15;;;18.20;89.60;;;;;;5095501;28;20027;-46
2021/08/22 06:48:40;;;;;;;51.28;33.08;;;18.30;89.10;;;;;;5094125;28;20067;-48
2021/08/22 06:51:06;;;;;;;45.53;31.95;;;18.30;88.90;;;;;;5095272;28;20410;-49
2021/08/22 06:53:31;;;;;;;46.65;32.30;;;18.30;88.90;;;;;;5095362;28;20095;-52
2021/08/22 06:55:57;;;;;;;48.80;31.25;;;18.30;89.00;;;;;;5095341;28;20115;-47
2021/08/22 06:58:23;;;;;;;42.25;29.73;;;18.40;88.70;;;;;;5095266;28;20019;-47
2021/08/22 07:00:49;;;;;;;53.28;29.20;;;18.40;88.70;;;;;;5095754;28;20027;-48
2021/08/22 07:03:15;;;;;;;42.33;29.30;;;18.40;88.50;;;;;;5095326;28;20479;-49
2021/08/22 07:05:40;;;;;;;40.00;27.88;;;18.40;88.60;;;;;;5094745;28;20035;-48
2021/08/22 07:08:06;;;;;;;50.10;30.77;;;18.40;88.40;;;;;;5095123;28;20028;-49
2021/08/22 07:10:31;;;;;;;47.95;27.52;;;18.50;88.00;;;;;;5095040;28;20104;-47
2021/08/22 07:12:57;;;;;;;53.65;29.85;;;18.50;87.70;;;;;;5094895;28;20534;-50
2021/08/22 07:15:23;;;;;;;52.83;31.95;;;18.70;87.00;;;;;;5095554;28;20042;-47
2021/08/22 07:17:51;;;;;;;48.67;32.67;;;18.60;87.20;;;;;;5093864;28;20164;-47
2021/08/22 07:20:17;;;;;;;47.25;30.92;;;18.60;86.40;;;;;;5093476;28;20112;-48
2021/08/22 07:22:43;;;;;;;51.15;32.83;;;18.70;86.10;;;;;;5095353;28;20430;-47
2021/08/22 07:25:08;;;;;;;50.65;34.25;;;18.70;85.10;;;;;;5094793;28;20164;-49
2021/08/22 07:27:34;;;;;;;47.17;31.63;;;18.80;84.80;;;;;;5094767;28;20048;-47
2021/08/22 07:30:00;;;;;;;40.00;28.25;;;19.00;84.00;;;;;;5094836;28;20096;-53
2021/08/22 07:32:25;;;;;;;40.42;30.50;;;19.00;83.80;;;;;;5094636;28;20077;-50
2021/08/22 07:34:51;;;;;;;45.80;30.42;;;19.00;83.50;;;;;;5094591;28;20024;-48
2021/08/22 07:37:16;;;;;;;43.83;30.48;;;19.10;82.70;;;;;;5094741;28;20116;-46
2021/08/22 07:39:42;;;;;;;44.13;30.25;;;18.80;83.20;;;;;;5094918;28;20027;-49
2021/08/22 07:42:08;;;;;;;39.88;30.50;;;19.00;83.20;;;;;;5093787;28;20024;-48
2021/08/22 07:44:34;;;;;;;41.50;31.20;;;19.20;82.50;;;;;;5094889;28;20031;-46
2021/08/22 07:46:59;;;;;;;37.70;28.45;;;19.50;81.50;;;;;;5095420;28;20035;-48
2021/08/22 07:49:25;;;;;;;35.40;26.83;;;19.60;79.70;;;;;;5095208;28;20065;-50
2021/08/22 07:51:51;;;;;;;37.15;27.33;;;19.60;79.50;;;;;;5093565;28;20099;-49
2021/08/22 07:54:17;;;;;;;31.63;23.80;;;19.60;78.50;;;;;;5093434;28;20031;-48
2021/08/22 07:56:44;;;;;;;33.83;23.75;;;19.50;79.30;;;;;;5093830;28;20020;-49
2021/08/22 07:59:10;;;;;;;28.70;23.60;;;19.30;79.80;;;;;;5093201;28;20020;-50
2021/08/22 08:01:36;;;;;;;32.47;24.30;;;19.30;79.30;;;;;;5094630;28;20031;-46
2021/08/22 08:04:04;;;;;;;36.28;25.73;;;19.30;79.30;;;;;;5094447;28;20477;-49
2021/08/22 08:06:30;;;;;;;29.52;25.17;;;19.70;77.90;;;;;;5094449;28;20505;-48
2021/08/22 08:08:55;;;;;;;28.30;20.85;;;19.60;77.50;;;;;;5094779;28;20031;-51
2021/08/22 08:11:21;;;;;;;29.88;22.35;;;19.60;77.30;;;;;;5094385;28;20077;-51
2021/08/22 08:13:47;;;;;;;24.63;19.77;;;19.80;76.50;;;;;;5092326;28;20050;-48
2021/08/22 08:16:13;;;;;;;20.45;17.40;;;20.10;75.40;;;;;;5093833;28;20106;-47
2021/08/22 08:18:38;;;;;;;21.17;16.38;;;20.30;74.60;;;;;;5093287;28;20093;-48
2021/08/22 08:21:04;;;;;;;20.30;15.88;;;20.90;71.90;;;;;;5093324;28;20028;-47
2021/08/22 08:23:31;;;;;;;28.30;16.88;;;20.80;72.30;;;;;;5093349;28;20081;-46
2021/08/22 08:25:57;;;;;;;19.25;16.27;;;21.10;71.60;;;;;;5093956;28;20107;-46
2021/08/22 08:28:26;;;;;;;21.65;16.95;;;21.00;71.50;;;;;;5094040;28;20051;-48
2021/08/22 08:30:51;;;;;;;19.67;15.15;;;20.90;72.40;;;;;;5093318;28;20035;-50
2021/08/22 08:33:17;;;;;;;19.25;17.02;;;20.70;72.80;;;;;;5093309;28;20379;-47
2021/08/22 08:35:42;;;;;;;20.42;16.20;;;20.00;74.60;;;;;;5094013;28;20316;-47
2021/08/22 08:38:08;;;;;;;22.38;16.48;;;20.20;74.30;;;;;;5093451;28;20020;-48
2021/08/22 08:40:34;;;;;;;20.65;15.73;;;20.30;74.00;;;;;;5093566;28;20028;-46
2021/08/22 08:43:01;;;;;;;19.40;15.23;;;20.30;74.40;;;;;;5093717;28;20020;-46
2021/08/22 08:45:39;;;;;;;19.48;15.45;;;20.30;74.40;;;;;;5093276;28;20020;-48
2021/08/22 08:48:05;;;;;;;14.70;13.20;;;20.40;73.90;;;;;;5093859;28;20027;-46
2021/08/22 08:50:52;;;;;;;17.48;14.23;;;20.50;73.90;;;;;;5093227;28;20031;-49
2021/08/22 08:53:24;;;;;;;18.35;14.88;;;20.50;73.90;;;;;;5091833;28;20028;-49
2021/08/22 08:56:19;;;;;;;16.42;14.73;;;20.10;75.30;;;;;;5093401;28;20012;-46
2021/08/22 08:58:45;;;;;;;16.10;14.50;;;19.90;75.80;;;;;;5079648;28;20420;-47
2021/08/22 09:01:10;;;;;;;17.75;12.57;;;19.90;76.30;;;;;;5093628;28;20048;-46
2021/08/22 09:03:36;;;;;;;14.43;12.93;;;19.90;76.20;;;;;;5093028;28;20053;-46
2021/08/22 09:06:04;;;;;;;14.00;11.77;;;19.80;76.70;;;;;;5093081;28;20028;-47
2021/08/22 09:08:52;;;;;;;12.68;11.35;;;20.10;76.00;;;;;;5093223;28;20382;-49
2021/08/22 09:11:39;;;;;;;13.98;11.27;;;20.50;74.50;;;;;;5091701;28;20095;-48
2021/08/22 09:14:42;;;;;;;10.35;9.30;;;21.20;73.00;;;;;;5093210;28;20062;-47
2021/08/22 09:17:46;;;;;;;9.63;6.95;;;22.60;67.90;;;;;;5093914;28;20077;-47
2021/08/22 09:20:49;;;;;;;12.52;7.90;;;22.00;68.80;;;;;;5061749;28;20036;-47
2021/08/22 09:23:48;;;;;;;9.93;7.95;;;21.60;69.60;;;;;;5092686;28;20043;-48
2021/08/22 09:26:35;;;;;;;8.47;7.07;;;21.70;69.70;;;;;;5093139;28;20464;-47
2021/08/22 09:29:38;;;;;;;7.53;6.72;;;22.00;68.20;;;;;;5094506;28;20032;-51
2021/08/22 09:32:28;;;;;;;8.07;7.28;;;21.30;71.00;;;;;;5096637;28;20503;-48
2021/08/22 09:35:19;;;;;;;10.88;5.75;;;21.50;70.40;;;;;;5097260;28;20031;-47
2021/08/22 09:37:50;;;;;;;;;;;22.30;68.10;;;;;;5097660;28;20017;-47
2021/08/22 09:40:53;;;;;;;6.07;5.07;;;23.10;64.40;;;;;;5097069;28;19904;-47
2021/08/22 09:43:49;;;;;;;6.03;5.40;;;23.80;62.80;;;;;;5097148;28;20031;-48
2021/08/22 09:46:42;;;;;;;6.65;4.65;;;23.80;62.00;;;;;;5097189;28;20028;-48
2021/08/22 09:49:46;;;;;;;9.73;6.72;;;23.50;62.90;;;;;;5096966;28;20085;-47
2021/08/22 09:52:49;;;;;;;8.68;4.82;;;23.50;62.60;;;;;;5095212;28;20034;-47
2021/08/22 09:56:09;;;;;;;5.82;4.85;;;23.30;63.10;;;;;;5095265;28;20042;-47
2021/08/22 09:59:12;;;;;;;6.32;3.95;;;22.80;65.00;;;;;;5014326;28;20041;-48
2021/08/22 10:02:01;;;;;;;5.25;4.68;;;23.80;61.80;;;;;;5096291;28;20026;-48
2021/08/22 10:04:45;;;;;;;5.93;4.35;;;23.70;61.60;;;;;;5085308;28;20033;-47
2021/08/22 10:07:25;;;;;;;8.55;3.83;;;24.00;61.70;;;;;;5096770;28;20459;-47
2021/08/22 10:09:56;;;;;;;;;;;22.80;62.80;;;;;;5095518;28;20099;-47
2021/08/22 10:12:22;;;;;;;8.88;4.82;;;22.60;63.80;;;;;;5096073;28;19926;-52
2021/08/22 10:14:48;;;;;;;7.75;4.45;;;22.30;65.50;;;;;;5095940;28;20515;-48
2021/08/22 10:17:33;;;;;;;6.80;4.00;;;22.30;65.80;;;;;;5095994;28;20020;-47
2021/08/22 10:19:58;;;;;;;8.48;4.63;;;22.40;65.70;;;;;;5095868;28;20577;-48
2021/08/22 10:22:30;;;;;;;6.53;4.75;;;22.10;66.40;;;;;;5095784;28;20056;-51
2021/08/22 10:24:59;;;;;;;7.90;4.30;;;21.70;67.70;;;;;;5096131;28;20047;-48
2021/08/22 10:27:31;;;;;;;4.68;3.53;;;21.50;66.40;;;;;;5094551;28;20383;-48
2021/08/22 10:30:03;;;;;;;6.03;3.55;;;22.00;65.00;;;;;;5096012;28;20042;-48
2021/08/22 10:32:33;;;;;;;6.38;3.80;;;21.80;65.00;;;;;;5095773;28;20032;-51
2021/08/22 10:35:12;;;;;;;6.95;4.43;;;21.70;66.00;;;;;;5095983;28;20093;-48
2021/08/22 10:37:39;;;;;;;9.02;4.53;;;22.10;65.20;;;;;;5095656;28;20028;-49
2021/08/22 10:40:23;;;;;;;5.00;3.58;;;22.80;63.20;;;;;;5095347;28;20461;-48
2021/08/22 10:42:59;;;;;;;5.07;4.05;;;24.40;58.10;;;;;;5095446;28;20118;-47
2021/08/22 10:45:40;;;;;;;5.65;3.67;;;24.80;55.40;;;;;;5095719;28;20035;-49
2021/08/22 10:48:06;;;;;;;6.50;4.10;;;24.30;56.80;;;;;;5095752;28;20108;-48
2021/08/22 10:50:58;;;;;;;8.63;4.07;;;23.50;58.30;;;;;;5095464;28;20073;-47
2021/08/22 10:53:24;;;;;;;6.68;3.65;;;22.70;60.90;;;;;;5095197;28;20024;-48
2021/08/22 10:55:50;;;;;;;6.28;5.28;;;22.60;61.90;;;;;;5095744;28;20027;-47
2021/08/22 10:58:16;;;;;;;4.60;4.10;;;23.20;59.70;;;;;;5095396;28;20432;-49
2021/08/22 11:00:42;;;;;;;8.75;4.38;;;22.80;61.70;;;;;;5095463;28;20028;-47
2021/08/22 11:03:16;;;;;;;6.88;4.10;;;22.80;60.60;;;;;;5095119;28;20024;-49
2021/08/22 11:05:44;;;;;;;6.18;4.05;;;22.80;61.20;;;;;;5093856;28;20032;-48
2021/08/22 11:08:20;;;;;;;4.90;4.22;;;23.00;60.60;;;;;;5095406;28;20383;-48
2021/08/22 11:10:58;;;;;;;4.40;2.92;;;22.60;61.90;;;;;;5093892;28;20515;-50
2021/08/22 11:13:29;;;;;;;6.50;4.10;;;22.30;60.70;;;;;;5093546;28;20488;-48
2021/08/22 11:15:56;;;;;;;12.05;3.65;;;22.50;61.00;;;;;;5094909;28;20055;-47
2021/08/22 11:18:22;;;;;;;6.55;3.72;;;22.80;60.60;;;;;;5095041;28;20541;-48
2021/08/22 11:20:47;;;;;;;6.10;4.03;;;22.80;60.00;;;;;;5093528;28;20403;-47
2021/08/22 11:23:17;;;;;;;5.60;4.03;;;22.60;61.10;;;;;;5095131;28;20016;-48
2021/08/22 11:25:48;;;;;;;6.03;3.60;;;22.80;60.00;;;;;;5093646;28;20540;-47
2021/08/22 11:28:18;;;;;;;4.63;3.72;;;22.80;60.20;;;;;;5094962;28;20024;-46
2021/08/22 11:30:45;;;;;;;;;;;23.40;58.90;;;;;;5093672;28;20162;-46
2021/08/22 11:33:12;;;;;;;3.58;2.88;;;23.00;57.50;;;;;;5094784;28;19951;-49
2021/08/22 11:35:40;;;;;;;4.80;3.03;;;22.90;55.50;;;;;;5095151;28;20020;-47
2021/08/22 11:38:06;;;;;;;4.97;2.92;;;22.70;56.40;;;;;;5094671;28;20043;-47
2021/08/22 11:40:33;;;;;;;2.92;2.47;;;23.50;54.10;;;;;;5094598;28;20020;-47
2021/08/22 11:43:02;;;;;;;4.30;2.85;;;24.40;51.40;;;;;;5094708;28;20059;-48
2021/08/22 11:45:31;;;;;;;4.43;2.42;;;24.60;50.10;;;;;;5094686;28;20387;-49
2021/08/22 11:47:57;;;;;;;5.15;3.00;;;24.70;48.10;;;;;;5094219;28;20024;-49
2021/08/22 11:50:28;;;;;;;4.18;2.70;;;24.70;47.70;;;;;;5094582;28;20429;-46
2021/08/22 11:52:56;;;;;;;6.50;3.20;;;25.60;46.90;;;;;;5093436;28;20031;-51
2021/08/22 11:55:24;;;;;;;3.38;2.83;;;26.80;44.70;;;;;;5094136;28;20054;-47
2021/08/22 11:57:49;;;;;;;6.03;3.28;;;25.90;46.60;;;;;;5094383;28;20468;-46
2021/08/22 12:00:19;;;;;;;7.45;3.90;;;25.20;48.10;;;;;;5094305;28;20076;-49
2021/08/22 12:03:00;;;;;;;5.82;3.20;;;24.60;49.60;;;;;;5094366;28;20024;-47
2021/08/22 12:05:27;;;;;;;6.97;3.05;;;24.40;49.40;;;;;;5093838;28;20025;-52
2021/08/22 12:08:12;;;;;;;5.32;3.03;;;25.00;47.50;;;;;;5092456;28;20020;-49
2021/08/22 12:10:41;;;;;;;4.20;2.60;;;25.40;46.80;;;;;;5093850;28;20028;-51
2021/08/22 12:13:18;;;;;;;5.63;3.13;;;25.60;46.70;;;;;;5093828;28;20040;-48
2021/08/22 12:15:45;;;;;;;6.43;2.72;;;24.70;47.60;;;;;;5093947;28;20543;-51
2021/08/22 12:18:14;;;;;;;5.53;3.00;;;25.20;47.00;;;;;;5092388;28;20020;-47
2021/08/22 12:20:40;;;;;;;5.55;2.53;;;24.70;48.10;;;;;;5092205;28;20028;-49
2021/08/22 12:23:07;;;;;;;7.45;2.95;;;24.80;46.30;;;;;;5094028;28;20437;-48
2021/08/22 12:25:37;;;;;;;3.40;2.00;;;24.70;46.60;;;;;;5093874;28;20024;-47
2021/08/22 12:28:42;;;;;;;8.90;2.75;;;25.00;45.90;;;;;;5094488;28;20039;-47
2021/08/22 12:31:10;;;;;;;5.55;2.67;;;25.20;45.90;;;;;;5011401;28;20109;-49
2021/08/22 12:33:41;;;;;;;6.88;3.00;;;26.20;43.90;;;;;;5079642;28;20093;-48
2021/08/22 12:36:18;;;;;;;3.63;2.50;;;25.60;46.30;;;;;;5093664;28;20016;-50
2021/08/22 12:38:46;;;;;;;3.17;2.42;;;25.70;47.30;;;;;;5093496;28;20016;-47
2021/08/22 12:41:40;;;;;;;5.80;4.03;;;25.10;49.40;;;;;;5094113;28;20021;-51
2021/08/22 12:44:14;;;;;;;8.68;3.30;;;26.40;45.90;;;;;;5093669;28;20487;-48
2021/08/22 12:46:40;;;;;;;5.05;3.22;;;25.70;48.20;;;;;;5093407;28;20107;-49
2021/08/22 12:49:07;;;;;;;7.15;3.50;;;24.90;49.80;;;;;;5093253;28;20111;-51